默认 日期 大小 文件数 浏览量 最新下载 xml
extrema磁力链接相关资源由用户搜索指令自动获取,结果来源于网络,本站不存储任何资料,亦不承担任何责任,请于24小时内删除,搜索到179个磁力,用时0ms。
    ... Mix).flac": 66246305}, "[EGMSIN012] VA - Extrema Rising Stars EP (2014)": {"folder ... Remix).flac": 47897085}, "[EGMSIN101] VA - Extrema Rising Stars, Vol. 3 (2016 ... ": 68496351}, "[EGMSIN035] James Kelly - 400 (Extrema 400 Official Anthem) (2015)": {"folder ...
创建时间: 2023-05-16 23:36:36 大小:33.07 GB 文件数量:1480 热度:4 最近下载:2025-01-21 01:54:12
    ... Aviso - Próxima Imersão Extrema.txt": 760, "3.3 ... 67861838, "11. Otimização Extrema de Remarketing.mp4": 103090357, "10 ... 71575710, "19. Otimização Extrema de Locais, Dispositivos e Programa ... 60424, "9. Otimização Extrema de Sites Inteligentes.mp4": 41600864 ...
创建时间: 2023-05-18 22:28:40 大小:57.53 GB 文件数量:487 热度:3 最近下载:2025-01-20 12:42:05
    {"00. Cover.jpg": 33004, "03. Max Ivanovsky - Tiamat (Original Mix).mp3": 18664852, "01. Craig Johnstone - Nano (Original Mix).mp3": 17596969, "02. Kinetica - Shaking Sunrays(Original Mix).mp3": 16176956, "04. Paul MacMillan - Time Will Tell (Original Mix ...
创建时间: 2023-05-19 21:49:48 大小:64.59 MB 文件数量:5 热度:4 最近下载:2025-09-16 16:32:01
    {"www.spatorrent.com.url": 197, "Torrent downloaded from SPATorrent.CoM.txt": 49, "Ingenieria.Extrema.Plataforma.Petrolifera.De.Sakhalin.DVDRip.Xvid.Mp3.Spanish.[www.SpaTorrent.com].avi": 734771200}
创建时间: 2023-06-06 20:57:34 大小:700.73 MB 文件数量:3 热度:3 最近下载:2025-01-12 06:58:08
    {"VIDEO_TS": {"VIDEO_TS.BUP": 18432, "VIDEO_TS.IFO": 18432, "VTS_01_0.BUP": 20480, "VTS_01_0.IFO": 20480, "VTS_01_0.VOB": 606208, "VTS_01_1.VOB": 1630208, "VTS_02_0.BUP": 12288, "VTS_02_0.IFO": 12288, "VTS_02_1.VOB": 30720, "VTS_03_0.BUP": 12288, "VTS_03_0 ...
创建时间: 2023-06-10 19:49:26 大小:4.3 GB 文件数量:48 热度:3 最近下载:2025-01-15 13:43:04
    {"Veronica Festivals Extrema Outdoor 2013 720p HDTV NL DutchTV.mkv": 1237975471, "Veronica Festivals Extrema Outdoor 2013 720p HDTV NL DutchTV.nfo": 1803}
创建时间: 2023-07-30 20:58:10 大小:1.15 GB 文件数量:2 热度:3 最近下载:2025-01-21 20:38:12
    {"Extrema 112.mp3": 120018695, "Manuel Le Saux.jpg": 160895, "NFO OPEN IN NOTEPAD.nfo": 332, "00. Manuel Le Saux - Extrema 112.nfo": 1854, "00. Manuel Le Saux - Extrema 112.pls": 105}
创建时间: 2023-08-13 22:11:17 大小:114.61 MB 文件数量:5 热度:2 最近下载:2025-01-24 08:36:02
    {"Importante Leeme!.vbs": 213, "Descargar Películas, Series y Animes...url": 50, "Hardcore.Misión.extrema.2015.DVDrip-lat.avi": 506772338}
创建时间: 2023-09-15 23:01:32 大小:483.3 MB 文件数量:3 热度:1 最近下载:2025-02-16 21:23:05
    {"Cover.jpg": 2166823, "Extrema.jpg": 250792, "11 - Life (30th ...
创建时间: 2023-10-11 19:05:08 大小:515.3 MB 文件数量:13 热度:6 最近下载:2025-01-15 07:42:01
    {"Persecucion extrema [HDRip].avi": 1848170496}
创建时间: 2023-10-29 18:42:47 大小:1.72 GB 文件数量:1 热度:3 最近下载:2025-01-21 23:37:07
    {"Hardcore Missão Extrema.2015.1080p.60fps.BluRay.H264. ... .mkv": 14429162489, "Hardcore Missão Extrema.2015.1080p.60fps.BluRay.H264 ... .srt": 50168, "Hardcore Missão Extrema.2015.1080p.60fps.BluRay.H264 ...
创建时间: 2023-12-08 15:56:02 大小:13.44 GB 文件数量:3 热度:6 最近下载:2025-04-14 03:28:02
    {"01. MYR - Chosen (Original Mix).mp3": 7684014, "12. Db Mokk - Aria (Original Mix).mp3": 8256622, "06. X-Matrix - Destiny (Original Mix).mp3": 10483307, "20. Db Mokk - Stronger (Original Mix).mp3": 7713283, "02. Starpicker - Ethion (Original Mix).mp3": ...
创建时间: 2023-12-16 13:40:13 大小:167.44 MB 文件数量:20 热度:4 最近下载:2025-01-18 23:25:12
    ... .pdf": 868801}, "1. Mentoria Extrema 31-10 v2.mp4": 794946382 ... Veículos - 02102023": {"Materiais": {"MENTORIA EXTREMA - 02_10_2023.pdf": 41146}, "1. ... Desenvolvimento pessoal - 07082023": {"1. MENTORIA EXTREMA - 07_08 corrigida.mp4": 1123598633}, " ...
创建时间: 2023-12-26 19:34:00 大小:234.72 GB 文件数量:1086 热度:8 最近下载:2025-10-13 20:08:01
    {"cover.jpg": 8502742, "04 - Blitzar.mp3": 9624401, "10 - Plerion.mp3": 8614022, "01 - Apoapsis.mp3": 2240046, "02 - Aphelion.mp3": 7949848, "15 - Fractals.mp3": 8693515, "09 - Hypernova.mp3": 8824259, "12 - Singularity.mp3": 7692554, "05 - Event Horizon. ...
创建时间: 2024-04-21 18:48:34 大小:131.57 MB 文件数量:17 热度:4 最近下载:2025-10-16 16:59:03
    {"03. Odio.flac": 39599375, "01. Intro.flac": 7981442, "07. Lucha.flac": 50787452, "Cicatrices.jpg": 7913027, "04. My Crew.flac": 45661264, "05. Despierta.flac": 67163957, "10. Cicatrices.flac": 62836130, "02. Fuente De Caos.flac": 58480297, "09. Impacto ...
创建时间: 2024-05-05 14:58:14 大小:507.05 MB 文件数量:11 热度:4 最近下载:2025-09-15 13:30:13
    {"Decisión extrema (2019).Yamil.avi": 1947498496}
创建时间: 2024-06-12 14:52:45 大小:1.81 GB 文件数量:1 热度:3 最近下载:2025-03-19 10:40:01
    ... -04. Antenna - Odessa.flac": 21916614, "Extrema Outdoor 2016 CD1.cue": 2822 ... , "Extrema Outdoor 2016 CD1.log": 16014, "Extrema Outdoor 2016 CD2 ... .cue": 2710, "Extrema Outdoor 2016 CD2 ...
创建时间: 2024-07-22 13:39:37 大小:909.69 MB 文件数量:34 热度:3 最近下载:2025-01-18 03:41:07
    {"Comando.LA.url": 45, "TorrentDosFilmes.SE.url": 152, "BAIXAR OUTROS FILMES.url": 210, "Missao.Extrema.2021.1080p.WEB-DL.DUAL.2.0.mkv": 2795759673}
创建时间: 2025-02-07 11:03:32 大小:2.6 GB 文件数量:4 热度:2 最近下载:2025-03-08 13:48:02
    {"? LEIA-ME.txt": 111, "BaixarFimesHD.net.url": 117, "Missao.Extrema.2021.1080p.WEB-DL.x264.DUAL.2.0.mkv": 2795759673}
创建时间: 2025-02-11 09:42:10 大小:2.6 GB 文件数量:3 热度:4 最近下载:2025-03-30 17:11:02
    {"Alerta.Extrema.2023.1080P-Dual-Lat.mp4": 2146113735, "Alerta.Extrema.2023.1080P-Dual-Lat.srt": 89331}
创建时间: 2025-03-02 17:44:12 大小:2 GB 文件数量:2 热度:2 最近下载:2025-03-07 14:05:02